sensor_id;sensor_type;location;lat;lon;timestamp;P1;durP1;ratioP1;P2;durP2;ratioP2
36787;SDS011;22738;45.560;9.434;2022-10-26T00:00:23;26.95;;;8.50;;
36787;SDS011;22738;45.560;9.434;2022-10-26T00:07:05;15.85;;;7.85;;
36787;SDS011;22738;45.560;9.434;2022-10-26T00:13:46;23.75;;;9.68;;
36787;SDS011;22738;45.560;9.434;2022-10-26T00:20:29;14.77;;;7.72;;
36787;SDS011;22738;45.560;9.434;2022-10-26T00:27:11;18.52;;;8.43;;
36787;SDS011;22738;45.560;9.434;2022-10-26T00:33:53;27.30;;;10.65;;
36787;SDS011;22738;45.560;9.434;2022-10-26T00:40:35;25.10;;;10.57;;
36787;SDS011;22738;45.560;9.434;2022-10-26T00:47:17;21.15;;;9.07;;
36787;SDS011;22738;45.560;9.434;2022-10-26T00:54:02;23.23;;;9.15;;
36787;SDS011;22738;45.560;9.434;2022-10-26T01:00:46;25.23;;;8.85;;
36787;SDS011;22738;45.560;9.434;2022-10-26T01:07:28;20.88;;;8.88;;
36787;SDS011;22738;45.560;9.434;2022-10-26T01:14:09;17.45;;;7.70;;
36787;SDS011;22738;45.560;9.434;2022-10-26T01:20:57;16.05;;;7.38;;
36787;SDS011;22738;45.560;9.434;2022-10-26T01:27:54;14.70;;;7.28;;
36787;SDS011;22738;45.560;9.434;2022-10-26T01:34:42;18.02;;;6.80;;
36787;SDS011;22738;45.560;9.434;2022-10-26T01:41:37;13.10;;;5.88;;
36787;SDS011;22738;45.560;9.434;2022-10-26T01:48:27;17.70;;;7.43;;
36787;SDS011;22738;45.560;9.434;2022-10-26T02:09:08;14.60;;;7.07;;
36787;SDS011;22738;45.560;9.434;2022-10-26T02:23:02;16.95;;;8.55;;
36787;SDS011;22738;45.560;9.434;2022-10-26T02:29:46;19.63;;;8.52;;
36787;SDS011;22738;45.560;9.434;2022-10-26T02:36:31;16.05;;;7.82;;
36787;SDS011;22738;45.560;9.434;2022-10-26T02:43:16;21.65;;;7.75;;
36787;SDS011;22738;45.560;9.434;2022-10-26T02:50:02;15.52;;;7.28;;
36787;SDS011;22738;45.560;9.434;2022-10-26T02:56:48;13.93;;;6.22;;
36787;SDS011;22738;45.560;9.434;2022-10-26T03:03:34;14.23;;;7.28;;
36787;SDS011;22738;45.560;9.434;2022-10-26T03:10:15;14.32;;;7.00;;
36787;SDS011;22738;45.560;9.434;2022-10-26T03:16:56;17.33;;;7.63;;
36787;SDS011;22738;45.560;9.434;2022-10-26T03:23:37;16.13;;;6.68;;
36787;SDS011;22738;45.560;9.434;2022-10-26T03:30:18;19.23;;;7.45;;
36787;SDS011;22738;45.560;9.434;2022-10-26T03:36:59;13.02;;;7.05;;
36787;SDS011;22738;45.560;9.434;2022-10-26T03:43:40;11.27;;;7.05;;
36787;SDS011;22738;45.560;9.434;2022-10-26T03:50:21;18.75;;;7.72;;
36787;SDS011;22738;45.560;9.434;2022-10-26T03:57:03;15.93;;;7.32;;
36787;SDS011;22738;45.560;9.434;2022-10-26T04:03:44;13.60;;;7.80;;
36787;SDS011;22738;45.560;9.434;2022-10-26T04:10:26;21.10;;;8.50;;
36787;SDS011;22738;45.560;9.434;2022-10-26T04:17:09;25.37;;;8.50;;
36787;SDS011;22738;45.560;9.434;2022-10-26T04:23:50;21.77;;;8.02;;
36787;SDS011;22738;45.560;9.434;2022-10-26T04:30:31;17.92;;;7.82;;
36787;SDS011;22738;45.560;9.434;2022-10-26T04:37:15;15.35;;;6.70;;
36787;SDS011;22738;45.560;9.434;2022-10-26T04:43:56;14.07;;;6.25;;
36787;SDS011;22738;45.560;9.434;2022-10-26T04:50:39;14.30;;;5.95;;
36787;SDS011;22738;45.560;9.434;2022-10-26T05:04:04;17.00;;;5.72;;
36787;SDS011;22738;45.560;9.434;2022-10-26T05:10:48;14.73;;;6.00;;
36787;SDS011;22738;45.560;9.434;2022-10-26T05:17:29;14.65;;;5.10;;
36787;SDS011;22738;45.560;9.434;2022-10-26T05:24:11;9.98;;;4.22;;
36787;SDS011;22738;45.560;9.434;2022-10-26T05:30:52;16.02;;;4.80;;
36787;SDS011;22738;45.560;9.434;2022-10-26T05:37:33;17.42;;;5.30;;
36787;SDS011;22738;45.560;9.434;2022-10-26T05:44:15;11.05;;;4.50;;
36787;SDS011;22738;45.560;9.434;2022-10-26T05:51:00;12.43;;;4.75;;
36787;SDS011;22738;45.560;9.434;2022-10-26T05:57:41;16.65;;;4.70;;
36787;SDS011;22738;45.560;9.434;2022-10-26T06:04:28;15.27;;;4.68;;
36787;SDS011;22738;45.560;9.434;2022-10-26T06:11:17;12.48;;;5.53;;
36787;SDS011;22738;45.560;9.434;2022-10-26T06:18:04;9.27;;;4.55;;
36787;SDS011;22738;45.560;9.434;2022-10-26T06:32:02;8.68;;;4.57;;
36787;SDS011;22738;45.560;9.434;2022-10-26T06:38:43;9.00;;;5.07;;
36787;SDS011;22738;45.560;9.434;2022-10-26T06:45:25;11.27;;;5.13;;
36787;SDS011;22738;45.560;9.434;2022-10-26T06:59:30;12.30;;;5.68;;
36787;SDS011;22738;45.560;9.434;2022-10-26T07:06:16;10.80;;;5.25;;
36787;SDS011;22738;45.560;9.434;2022-10-26T07:12:57;13.98;;;6.10;;
36787;SDS011;22738;45.560;9.434;2022-10-26T07:19:40;16.08;;;5.78;;
36787;SDS011;22738;45.560;9.434;2022-10-26T07:26:24;13.13;;;5.68;;
36787;SDS011;22738;45.560;9.434;2022-10-26T07:33:06;12.05;;;5.25;;
36787;SDS011;22738;45.560;9.434;2022-10-26T07:39:51;11.00;;;5.20;;
36787;SDS011;22738;45.560;9.434;2022-10-26T07:46:33;10.15;;;4.25;;
36787;SDS011;22738;45.560;9.434;2022-10-26T07:53:14;14.82;;;4.85;;
36787;SDS011;22738;45.560;9.434;2022-10-26T07:59:58;13.55;;;5.22;;
36787;SDS011;22738;45.560;9.434;2022-10-26T08:06:39;11.15;;;3.92;;
36787;SDS011;22738;45.560;9.434;2022-10-26T08:13:20;10.73;;;4.75;;
36787;SDS011;22738;45.560;9.434;2022-10-26T08:20:01;12.80;;;4.38;;
36787;SDS011;22738;45.560;9.434;2022-10-26T08:26:43;10.65;;;3.67;;
36787;SDS011;22738;45.560;9.434;2022-10-26T08:33:24;9.38;;;3.85;;
36787;SDS011;22738;45.560;9.434;2022-10-26T08:40:05;12.52;;;3.42;;
36787;SDS011;22738;45.560;9.434;2022-10-26T08:46:48;10.63;;;4.10;;
36787;SDS011;22738;45.560;9.434;2022-10-26T08:53:50;9.55;;;3.80;;
36787;SDS011;22738;45.560;9.434;2022-10-26T09:00:36;7.40;;;3.20;;
36787;SDS011;22738;45.560;9.434;2022-10-26T09:28:32;10.68;;;4.22;;
36787;SDS011;22738;45.560;9.434;2022-10-26T09:42:03;13.13;;;4.75;;
36787;SDS011;22738;45.560;9.434;2022-10-26T09:49:07;15.73;;;5.63;;
36787;SDS011;22738;45.560;9.434;2022-10-26T10:02:57;18.90;;;9.05;;
36787;SDS011;22738;45.560;9.434;2022-10-26T10:09:38;25.60;;;10.43;;
36787;SDS011;22738;45.560;9.434;2022-10-26T10:16:21;29.00;;;11.63;;
36787;SDS011;22738;45.560;9.434;2022-10-26T10:23:03;27.13;;;11.93;;
36787;SDS011;22738;45.560;9.434;2022-10-26T10:29:49;30.83;;;12.88;;
36787;SDS011;22738;45.560;9.434;2022-10-26T10:36:31;30.35;;;13.32;;
36787;SDS011;22738;45.560;9.434;2022-10-26T10:43:13;31.60;;;14.02;;
36787;SDS011;22738;45.560;9.434;2022-10-26T10:50:06;29.30;;;14.13;;
36787;SDS011;22738;45.560;9.434;2022-10-26T10:57:01;31.85;;;12.95;;
36787;SDS011;22738;45.560;9.434;2022-10-26T11:04:07;27.08;;;13.00;;
36787;SDS011;22738;45.560;9.434;2022-10-26T11:18:14;24.27;;;11.93;;
36787;SDS011;22738;45.560;9.434;2022-10-26T11:25:04;25.58;;;11.55;;
36787;SDS011;22738;45.560;9.434;2022-10-26T11:31:52;32.08;;;15.68;;
36787;SDS011;22738;45.560;9.434;2022-10-26T11:38:55;34.13;;;14.57;;
36787;SDS011;22738;45.560;9.434;2022-10-26T11:45:42;36.00;;;15.13;;
36787;SDS011;22738;45.560;9.434;2022-10-26T11:52:45;43.05;;;18.88;;
36787;SDS011;22738;45.560;9.434;2022-10-26T11:59:35;28.02;;;14.02;;
36787;SDS011;22738;45.560;9.434;2022-10-26T12:06:24;36.05;;;15.82;;
36787;SDS011;22738;45.560;9.434;2022-10-26T12:13:29;36.60;;;16.90;;
36787;SDS011;22738;45.560;9.434;2022-10-26T12:27:31;29.92;;;12.43;;
36787;SDS011;22738;45.560;9.434;2022-10-26T12:41:18;25.13;;;12.50;;
36787;SDS011;22738;45.560;9.434;2022-10-26T12:48:02;28.67;;;13.82;;
36787;SDS011;22738;45.560;9.434;2022-10-26T12:54:47;32.60;;;15.43;;
36787;SDS011;22738;45.560;9.434;2022-10-26T13:08:48;28.10;;;12.52;;
36787;SDS011;22738;45.560;9.434;2022-10-26T13:15:39;35.50;;;13.68;;
36787;SDS011;22738;45.560;9.434;2022-10-26T13:22:32;23.23;;;11.32;;
36787;SDS011;22738;45.560;9.434;2022-10-26T13:29:13;24.90;;;13.07;;
36787;SDS011;22738;45.560;9.434;2022-10-26T13:35:56;28.85;;;12.20;;
36787;SDS011;22738;45.560;9.434;2022-10-26T13:42:41;21.83;;;10.15;;
36787;SDS011;22738;45.560;9.434;2022-10-26T13:49:32;25.67;;;11.52;;
36787;SDS011;22738;45.560;9.434;2022-10-26T14:03:12;33.33;;;15.05;;
36787;SDS011;22738;45.560;9.434;2022-10-26T14:09:55;22.70;;;11.38;;
36787;SDS011;22738;45.560;9.434;2022-10-26T14:16:39;21.90;;;11.18;;
36787;SDS011;22738;45.560;9.434;2022-10-26T14:23:36;22.83;;;10.80;;
36787;SDS011;22738;45.560;9.434;2022-10-26T14:30:28;27.02;;;13.05;;
36787;SDS011;22738;45.560;9.434;2022-10-26T14:37:17;24.83;;;11.23;;
36787;SDS011;22738;45.560;9.434;2022-10-26T14:44:19;30.92;;;12.35;;
36787;SDS011;22738;45.560;9.434;2022-10-26T14:57:44;32.25;;;13.70;;
36787;SDS011;22738;45.560;9.434;2022-10-26T15:04:31;23.65;;;12.00;;
36787;SDS011;22738;45.560;9.434;2022-10-26T15:11:14;22.48;;;10.60;;
36787;SDS011;22738;45.560;9.434;2022-10-26T15:17:56;22.10;;;11.75;;
36787;SDS011;22738;45.560;9.434;2022-10-26T15:24:44;31.30;;;13.70;;
36787;SDS011;22738;45.560;9.434;2022-10-26T15:31:34;22.52;;;10.68;;
36787;SDS011;22738;45.560;9.434;2022-10-26T15:38:15;23.02;;;11.00;;
36787;SDS011;22738;45.560;9.434;2022-10-26T15:44:57;32.05;;;13.35;;
36787;SDS011;22738;45.560;9.434;2022-10-26T15:51:38;23.63;;;10.48;;
36787;SDS011;22738;45.560;9.434;2022-10-26T15:58:20;22.08;;;10.55;;
36787;SDS011;22738;45.560;9.434;2022-10-26T16:05:01;21.40;;;8.80;;
36787;SDS011;22738;45.560;9.434;2022-10-26T16:11:43;20.77;;;9.82;;
36787;SDS011;22738;45.560;9.434;2022-10-26T16:18:24;20.30;;;10.10;;
36787;SDS011;22738;45.560;9.434;2022-10-26T16:25:05;20.15;;;9.60;;
36787;SDS011;22738;45.560;9.434;2022-10-26T16:31:47;22.63;;;9.73;;
36787;SDS011;22738;45.560;9.434;2022-10-26T16:38:28;27.65;;;10.63;;
36787;SDS011;22738;45.560;9.434;2022-10-26T16:45:11;22.23;;;11.13;;
36787;SDS011;22738;45.560;9.434;2022-10-26T16:51:53;23.07;;;11.73;;
36787;SDS011;22738;45.560;9.434;2022-10-26T16:58:37;21.03;;;10.67;;
36787;SDS011;22738;45.560;9.434;2022-10-26T17:05:20;28.23;;;12.40;;
36787;SDS011;22738;45.560;9.434;2022-10-26T17:12:02;24.17;;;11.93;;
36787;SDS011;22738;45.560;9.434;2022-10-26T17:18:44;26.73;;;11.40;;
36787;SDS011;22738;45.560;9.434;2022-10-26T17:25:32;23.10;;;12.25;;
36787;SDS011;22738;45.560;9.434;2022-10-26T17:32:15;24.42;;;13.23;;
36787;SDS011;22738;45.560;9.434;2022-10-26T17:38:58;26.58;;;12.70;;
36787;SDS011;22738;45.560;9.434;2022-10-26T17:45:40;27.48;;;13.10;;
36787;SDS011;22738;45.560;9.434;2022-10-26T17:52:21;29.30;;;12.68;;
36787;SDS011;22738;45.560;9.434;2022-10-26T17:59:05;29.23;;;14.10;;
36787;SDS011;22738;45.560;9.434;2022-10-26T18:05:51;33.10;;;12.07;;
36787;SDS011;22738;45.560;9.434;2022-10-26T18:12:32;25.77;;;12.93;;
36787;SDS011;22738;45.560;9.434;2022-10-26T18:19:18;30.95;;;13.98;;
36787;SDS011;22738;45.560;9.434;2022-10-26T18:26:19;28.23;;;13.40;;
36787;SDS011;22738;45.560;9.434;2022-10-26T18:33:01;26.40;;;12.90;;
36787;SDS011;22738;45.560;9.434;2022-10-26T18:39:47;33.95;;;14.73;;
36787;SDS011;22738;45.560;9.434;2022-10-26T18:46:29;29.45;;;14.07;;
36787;SDS011;22738;45.560;9.434;2022-10-26T18:53:11;31.67;;;14.48;;
36787;SDS011;22738;45.560;9.434;2022-10-26T18:59:53;29.35;;;14.00;;
36787;SDS011;22738;45.560;9.434;2022-10-26T19:06:35;31.92;;;14.55;;
36787;SDS011;22738;45.560;9.434;2022-10-26T19:13:18;29.10;;;13.95;;
36787;SDS011;22738;45.560;9.434;2022-10-26T19:20:01;36.85;;;16.30;;
36787;SDS011;22738;45.560;9.434;2022-10-26T19:26:42;33.28;;;15.90;;
36787;SDS011;22738;45.560;9.434;2022-10-26T19:33:24;39.55;;;16.30;;
36787;SDS011;22738;45.560;9.434;2022-10-26T19:40:07;34.70;;;17.20;;
36787;SDS011;22738;45.560;9.434;2022-10-26T19:46:53;39.33;;;18.05;;
36787;SDS011;22738;45.560;9.434;2022-10-26T19:53:55;38.30;;;17.83;;
36787;SDS011;22738;45.560;9.434;2022-10-26T20:00:40;39.95;;;15.90;;
36787;SDS011;22738;45.560;9.434;2022-10-26T20:07:34;32.92;;;15.10;;
36787;SDS011;22738;45.560;9.434;2022-10-26T20:14:21;38.17;;;17.00;;
36787;SDS011;22738;45.560;9.434;2022-10-26T20:21:09;31.17;;;15.35;;
36787;SDS011;22738;45.560;9.434;2022-10-26T20:27:53;32.65;;;14.95;;
36787;SDS011;22738;45.560;9.434;2022-10-26T20:34:34;31.42;;;15.13;;
36787;SDS011;22738;45.560;9.434;2022-10-26T20:41:15;28.23;;;14.50;;
36787;SDS011;22738;45.560;9.434;2022-10-26T20:47:57;27.27;;;12.90;;
36787;SDS011;22738;45.560;9.434;2022-10-26T20:54:59;28.45;;;14.23;;
36787;SDS011;22738;45.560;9.434;2022-10-26T21:01:47;34.88;;;15.50;;
36787;SDS011;22738;45.560;9.434;2022-10-26T21:08:31;27.58;;;13.63;;
36787;SDS011;22738;45.560;9.434;2022-10-26T21:15:12;37.72;;;15.85;;
36787;SDS011;22738;45.560;9.434;2022-10-26T21:21:57;34.67;;;16.45;;
36787;SDS011;22738;45.560;9.434;2022-10-26T21:28:39;35.75;;;15.73;;
36787;SDS011;22738;45.560;9.434;2022-10-26T21:35:26;28.58;;;15.52;;
36787;SDS011;22738;45.560;9.434;2022-10-26T21:42:16;35.10;;;15.88;;
36787;SDS011;22738;45.560;9.434;2022-10-26T21:48:59;35.03;;;14.65;;
36787;SDS011;22738;45.560;9.434;2022-10-26T21:55:43;39.40;;;16.00;;
36787;SDS011;22738;45.560;9.434;2022-10-26T22:02:26;28.05;;;14.50;;
36787;SDS011;22738;45.560;9.434;2022-10-26T22:09:09;33.30;;;14.30;;
36787;SDS011;22738;45.560;9.434;2022-10-26T22:16:01;32.78;;;13.18;;
36787;SDS011;22738;45.560;9.434;2022-10-26T22:22:52;24.33;;;12.10;;
36787;SDS011;22738;45.560;9.434;2022-10-26T22:29:35;31.88;;;13.50;;
36787;SDS011;22738;45.560;9.434;2022-10-26T22:36:15;34.17;;;14.07;;
36787;SDS011;22738;45.560;9.434;2022-10-26T22:43:01;38.45;;;15.77;;
36787;SDS011;22738;45.560;9.434;2022-10-26T22:49:43;32.13;;;14.48;;
36787;SDS011;22738;45.560;9.434;2022-10-26T22:56:25;37.35;;;15.43;;
36787;SDS011;22738;45.560;9.434;2022-10-26T23:03:08;42.42;;;15.70;;
36787;SDS011;22738;45.560;9.434;2022-10-26T23:09:51;35.83;;;15.27;;
36787;SDS011;22738;45.560;9.434;2022-10-26T23:16:32;32.50;;;14.38;;
36787;SDS011;22738;45.560;9.434;2022-10-26T23:23:13;37.33;;;14.88;;
36787;SDS011;22738;45.560;9.434;2022-10-26T23:29:54;30.42;;;14.52;;
36787;SDS011;22738;45.560;9.434;2022-10-26T23:36:35;34.63;;;14.15;;
36787;SDS011;22738;45.560;9.434;2022-10-26T23:43:19;28.38;;;13.32;;
36787;SDS011;22738;45.560;9.434;2022-10-26T23:50:02;35.92;;;15.13;;
36787;SDS011;22738;45.560;9.434;2022-10-26T23:56:43;34.38;;;15.02;;
